createdAt,value
2022-10-04T00:02:35.073Z,32.03
2022-10-04T00:05:42.345Z,28.15
2022-10-04T00:08:58.010Z,37.42
2022-10-04T00:12:06.050Z,31.83
2022-10-04T00:15:25.623Z,30.50
2022-10-04T00:18:41.040Z,29.15
2022-10-04T00:21:56.855Z,29.85
2022-10-04T00:25:08.898Z,29.10
2022-10-04T00:28:26.401Z,30.08
2022-10-04T00:31:32.000Z,30.65
2022-10-04T00:34:49.933Z,31.05
2022-10-04T00:38:08.455Z,34.72
2022-10-04T00:41:14.713Z,32.08
2022-10-04T00:44:28.017Z,31.23
2022-10-04T00:48:08.455Z,36.67
2022-10-04T00:51:30.300Z,39.67
2022-10-04T00:54:47.838Z,34.60
2022-10-04T00:58:00.229Z,32.58
2022-10-04T01:01:06.634Z,34.38
2022-10-04T01:04:28.756Z,31.48
2022-10-04T01:07:41.489Z,37.13
2022-10-04T01:10:59.094Z,39.10
2022-10-04T01:14:15.452Z,35.13
2022-10-04T01:17:20.846Z,38.00
2022-10-04T01:20:35.568Z,33.85
2022-10-04T01:23:48.229Z,37.35
2022-10-04T01:26:54.824Z,39.72
2022-10-04T01:30:02.190Z,32.72
2022-10-04T01:33:07.926Z,29.85
2022-10-04T01:36:13.526Z,31.88
2022-10-04T01:39:22.922Z,35.17
2022-10-04T01:42:44.946Z,34.15
2022-10-04T01:45:57.326Z,39.15
2022-10-04T01:49:12.642Z,41.35
2022-10-04T01:52:35.873Z,30.58
2022-10-04T01:55:45.647Z,34.92
2022-10-04T01:58:59.996Z,34.65
2022-10-04T02:02:18.940Z,34.53
2022-10-04T02:05:40.695Z,39.08
2022-10-04T02:08:52.718Z,32.88
2022-10-04T02:11:59.577Z,33.40
2022-10-04T02:15:08.850Z,37.70
2022-10-04T02:18:18.945Z,30.52
2022-10-04T02:21:24.789Z,30.90
2022-10-04T02:24:34.967Z,31.50
2022-10-04T02:27:40.786Z,34.55
2022-10-04T02:31:09.168Z,30.13
2022-10-04T02:34:19.207Z,31.65
2022-10-04T02:37:29.144Z,36.20
2022-10-04T02:41:14.602Z,31.95
2022-10-04T02:44:40.486Z,30.40
2022-10-04T02:47:54.050Z,34.30
2022-10-04T02:51:26.901Z,36.58
2022-10-04T02:54:43.692Z,29.25
2022-10-04T02:57:53.203Z,33.53
2022-10-04T03:01:02.378Z,31.95
2022-10-04T03:04:11.437Z,32.30
2022-10-04T03:07:17.591Z,33.85
2022-10-04T03:10:22.967Z,35.40
2022-10-04T03:13:28.794Z,40.45
2022-10-04T03:16:40.249Z,43.45
2022-10-04T03:19:49.327Z,40.42
2022-10-04T03:22:57.161Z,37.05
2022-10-04T03:26:20.930Z,38.70
2022-10-04T03:29:30.793Z,42.40
2022-10-04T03:32:36.768Z,46.05
2022-10-04T03:35:42.367Z,45.38
2022-10-04T03:38:49.509Z,48.20
2022-10-04T03:41:55.301Z,45.58
2022-10-04T03:45:04.365Z,48.42
2022-10-04T03:48:15.239Z,51.05
2022-10-04T03:51:24.530Z,44.13
2022-10-04T03:54:31.993Z,45.80
2022-10-04T03:57:38.460Z,49.40
2022-10-04T04:00:57.941Z,48.30
2022-10-04T04:04:36.133Z,45.47
2022-10-04T04:08:05.720Z,48.00
2022-10-04T04:11:21.547Z,51.17
2022-10-04T04:14:28.805Z,47.47
2022-10-04T04:17:43.078Z,41.53
2022-10-04T04:20:51.990Z,43.58
2022-10-04T04:24:03.209Z,45.22
2022-10-04T04:27:11.253Z,44.10
2022-10-04T04:30:19.057Z,50.83
2022-10-04T04:33:30.492Z,44.22
2022-10-04T04:39:55.358Z,37.92
2022-10-04T04:43:03.263Z,39.22
2022-10-04T04:46:26.784Z,49.20
2022-10-04T04:49:38.246Z,41.45
2022-10-04T04:52:55.307Z,47.10
2022-10-04T04:56:04.904Z,48.58
2022-10-04T04:59:13.574Z,46.88
2022-10-04T05:02:58.201Z,46.15
2022-10-04T05:06:05.298Z,41.85
2022-10-04T05:09:34.998Z,52.17
2022-10-04T05:12:40.536Z,49.75
2022-10-04T05:15:48.837Z,56.00
2022-10-04T05:19:08.744Z,50.83
2022-10-04T05:22:19.923Z,48.30
2022-10-04T05:28:38.033Z,51.60
2022-10-04T05:31:46.718Z,50.92
2022-10-04T05:34:54.285Z,47.65
2022-10-04T05:38:11.054Z,55.35
2022-10-04T05:41:52.415Z,55.35
2022-10-04T05:44:58.801Z,57.30
2022-10-04T05:48:09.446Z,47.72
2022-10-04T05:51:31.611Z,51.70
2022-10-04T05:54:38.130Z,47.45
2022-10-04T05:58:25.621Z,46.05
2022-10-04T06:02:31.644Z,49.33
2022-10-04T06:05:54.436Z,43.10
2022-10-04T06:09:34.401Z,39.53
2022-10-04T06:12:55.869Z,43.05
2022-10-04T06:16:24.974Z,46.17
2022-10-04T06:19:53.327Z,37.00
2022-10-04T06:23:06.507Z,45.28
2022-10-04T06:26:22.787Z,40.28
2022-10-04T06:29:58.570Z,37.95
2022-10-04T06:33:23.154Z,28.40
2022-10-04T06:36:39.140Z,29.35
2022-10-04T06:40:21.711Z,32.67
2022-10-04T06:44:20.243Z,28.23
2022-10-04T06:48:01.358Z,27.15
2022-10-04T06:51:27.966Z,30.00
2022-10-04T06:54:41.381Z,24.77
2022-10-04T06:58:15.042Z,27.65
2022-10-04T07:01:29.539Z,21.02
2022-10-04T07:05:07.713Z,19.48
2022-10-04T07:08:56.455Z,20.48
2022-10-04T07:12:08.821Z,20.27
2022-10-04T07:15:22.003Z,16.92
2022-10-04T07:19:05.823Z,22.02
2022-10-04T07:22:15.519Z,17.65
2022-10-04T07:25:51.177Z,17.65
2022-10-04T07:29:20.367Z,31.95
2022-10-04T07:32:31.645Z,17.60
2022-10-04T07:35:47.609Z,19.52
2022-10-04T07:39:10.886Z,16.95
2022-10-04T07:42:27.119Z,20.33
2022-10-04T07:45:40.314Z,16.95
2022-10-04T07:48:49.575Z,16.52
2022-10-04T07:52:28.538Z,13.85
2022-10-04T07:55:51.101Z,10.10
2022-10-04T07:59:15.371Z,7.85
2022-10-04T08:02:42.694Z,6.72
2022-10-04T08:06:29.736Z,13.10
2022-10-04T08:09:44.419Z,8.88
2022-10-04T08:12:57.966Z,8.27
2022-10-04T08:16:21.691Z,7.10
2022-10-04T08:19:39.368Z,10.18
2022-10-04T08:23:32.803Z,8.52
2022-10-04T08:27:01.587Z,11.90
2022-10-04T08:30:11.447Z,9.35
2022-10-04T08:33:37.703Z,8.68
2022-10-04T08:36:48.470Z,13.77
2022-10-04T08:40:13.912Z,12.68
2022-10-04T08:43:43.480Z,15.77
2022-10-04T08:47:25.739Z,18.98
2022-10-04T08:50:49.028Z,12.70
2022-10-04T08:54:22.934Z,12.77
2022-10-04T08:57:42.522Z,14.65
2022-10-04T09:01:09.213Z,17.25
2022-10-04T09:04:39.160Z,14.65
2022-10-04T09:07:54.842Z,11.32
2022-10-04T09:11:45.610Z,12.50
2022-10-04T09:15:26.659Z,11.35
2022-10-04T09:19:00.572Z,10.70
2022-10-04T09:22:36.900Z,12.63
2022-10-04T09:25:59.685Z,12.73
2022-10-04T09:29:26.217Z,13.70
2022-10-04T09:32:57.945Z,10.32
2022-10-04T09:36:22.481Z,15.18
2022-10-04T09:39:46.373Z,13.48
2022-10-04T09:43:30.246Z,11.48
2022-10-04T09:46:35.884Z,9.82
2022-10-04T09:50:06.806Z,15.15
2022-10-04T09:53:49.593Z,10.48
2022-10-04T09:57:07.194Z,15.35
2022-10-04T10:00:23.678Z,11.57
2022-10-04T10:03:51.308Z,10.15
2022-10-04T10:07:30.172Z,5.70
2022-10-04T10:11:10.410Z,11.43
2022-10-04T10:15:06.615Z,11.63
2022-10-04T10:18:40.183Z,11.10
2022-10-04T10:21:54.714Z,8.32
2022-10-04T10:25:19.442Z,8.73
2022-10-04T10:28:29.527Z,9.90
2022-10-04T10:32:06.181Z,12.07
2022-10-04T10:35:30.268Z,11.60
2022-10-04T10:38:48.667Z,8.68
2022-10-04T10:42:17.058Z,10.50
2022-10-04T10:45:50.632Z,11.10
2022-10-04T10:49:22.419Z,8.57
2022-10-04T10:52:46.305Z,12.40
2022-10-04T10:56:04.126Z,9.82
2022-10-04T10:59:41.181Z,13.63
2022-10-04T11:03:13.907Z,13.05
2022-10-04T11:06:26.762Z,10.80
2022-10-04T11:10:11.484Z,12.35
2022-10-04T11:13:42.878Z,16.60
2022-10-04T11:16:51.228Z,10.50
2022-10-04T11:20:27.247Z,8.20
2022-10-04T11:24:15.425Z,10.80
2022-10-04T11:28:01.424Z,9.15
2022-10-04T11:31:17.608Z,11.88
2022-10-04T11:35:18.147Z,14.05
2022-10-04T11:38:35.943Z,14.55
2022-10-04T11:42:02.902Z,10.15
2022-10-04T11:45:28.010Z,11.48
2022-10-04T11:48:39.537Z,9.73
2022-10-04T11:51:50.582Z,10.35
2022-10-04T11:55:34.551Z,12.35
2022-10-04T11:58:45.456Z,6.65
2022-10-04T12:02:18.451Z,16.67
2022-10-04T12:05:42.039Z,9.32
2022-10-04T12:09:14.612Z,15.10
2022-10-04T12:12:42.450Z,10.10
2022-10-04T12:16:01.466Z,11.68
2022-10-04T12:19:21.965Z,9.90
2022-10-04T12:22:43.816Z,10.50
2022-10-04T12:26:00.041Z,9.80
2022-10-04T12:29:34.462Z,12.00
2022-10-04T12:32:57.982Z,19.33
2022-10-04T12:36:24.282Z,13.07
2022-10-04T12:39:53.601Z,10.45
2022-10-04T12:43:07.425Z,10.75
2022-10-04T12:46:30.886Z,13.85
2022-10-04T12:49:51.657Z,12.05
2022-10-04T12:53:02.918Z,12.93
2022-10-04T12:56:13.705Z,9.52
2022-10-04T12:59:29.376Z,12.70
2022-10-04T13:02:52.346Z,16.60
2022-10-04T13:06:15.479Z,8.82
2022-10-04T13:09:35.626Z,8.60
2022-10-04T13:13:04.413Z,9.32
2022-10-04T13:20:32.786Z,10.73
2022-10-04T13:24:15.135Z,11.27
2022-10-04T13:27:48.856Z,12.65
2022-10-04T13:31:10.829Z,8.23
2022-10-04T13:34:29.362Z,10.25
2022-10-04T13:37:51.026Z,13.73
2022-10-04T13:41:11.343Z,11.45
2022-10-04T13:44:33.529Z,11.38
2022-10-04T13:48:00.707Z,11.75
2022-10-04T13:51:34.362Z,11.48
2022-10-04T13:55:08.395Z,20.83
2022-10-04T13:58:36.904Z,9.65
2022-10-04T14:01:48.927Z,12.95
2022-10-04T14:05:19.614Z,14.00
2022-10-04T14:08:37.533Z,10.87
2022-10-04T14:12:07.967Z,15.68
2022-10-04T14:15:23.556Z,12.07
2022-10-04T14:18:45.775Z,15.23
2022-10-04T14:22:12.624Z,9.40
2022-10-04T14:25:56.811Z,8.82
2022-10-04T14:29:53.255Z,11.50
2022-10-04T14:33:26.444Z,22.67
2022-10-04T14:36:56.525Z,11.13
2022-10-04T14:40:28.938Z,15.50
2022-10-04T14:43:55.277Z,9.70
2022-10-04T14:47:35.448Z,8.57
2022-10-04T14:51:19.886Z,9.57
2022-10-04T14:54:29.563Z,10.20
2022-10-04T14:58:14.063Z,15.48
2022-10-04T15:01:24.948Z,9.90
2022-10-04T15:04:54.689Z,9.43
2022-10-04T15:08:23.095Z,11.02
2022-10-04T15:11:53.498Z,13.90
2022-10-04T15:15:14.656Z,12.00
2022-10-04T15:18:38.676Z,14.43
2022-10-04T15:21:47.394Z,13.25
2022-10-04T15:24:53.989Z,9.45
2022-10-04T15:28:00.313Z,13.40
2022-10-04T15:31:24.251Z,9.40
2022-10-04T15:35:08.164Z,11.70
2022-10-04T15:38:34.380Z,15.95
2022-10-04T15:41:54.404Z,14.00
2022-10-04T15:45:17.682Z,11.25
2022-10-04T15:48:35.242Z,10.75
2022-10-04T15:52:13.222Z,11.93
2022-10-04T15:55:50.860Z,8.88
2022-10-04T15:59:24.922Z,9.50
2022-10-04T16:02:57.116Z,9.95
2022-10-04T16:06:12.983Z,20.17
2022-10-04T16:09:59.590Z,17.50
2022-10-04T16:13:17.431Z,12.50
2022-10-04T16:16:35.010Z,18.10
2022-10-04T16:20:04.833Z,13.55
2022-10-04T16:23:34.671Z,17.17
2022-10-04T16:26:43.858Z,21.08
2022-10-04T16:30:21.771Z,14.48
2022-10-04T16:33:29.707Z,17.02
2022-10-04T16:37:05.750Z,12.63
2022-10-04T16:40:27.432Z,11.80
2022-10-04T16:46:46.702Z,16.98
2022-10-04T16:49:58.179Z,14.35
2022-10-04T16:53:44.080Z,14.68
2022-10-04T16:56:58.328Z,16.45
2022-10-04T17:00:36.452Z,16.98
2022-10-04T17:03:57.143Z,16.58
2022-10-04T17:07:12.519Z,15.40
2022-10-04T17:10:45.334Z,21.45
2022-10-04T17:14:00.007Z,25.48
2022-10-04T17:17:35.642Z,12.80
2022-10-04T17:20:43.762Z,20.55
2022-10-04T17:24:12.191Z,17.42
2022-10-04T17:27:39.536Z,19.92
2022-10-04T17:31:01.347Z,19.10
2022-10-04T17:34:14.759Z,19.30
2022-10-04T17:37:48.331Z,19.65
2022-10-04T17:41:20.903Z,18.63
2022-10-04T17:44:34.483Z,16.67
2022-10-04T17:48:07.833Z,17.80
2022-10-04T17:51:50.645Z,17.67
2022-10-04T17:55:16.022Z,18.63
2022-10-04T17:58:31.577Z,19.52
2022-10-04T18:01:43.168Z,22.23
2022-10-04T18:04:53.437Z,20.20
2022-10-04T18:08:23.525Z,20.25
2022-10-04T18:11:42.044Z,20.08
2022-10-04T18:14:50.437Z,25.10
2022-10-04T18:18:19.269Z,18.38
2022-10-04T18:21:29.699Z,21.88
2022-10-04T18:24:34.920Z,19.85
2022-10-04T18:28:06.993Z,25.58
2022-10-04T18:31:35.639Z,19.67
2022-10-04T18:34:42.048Z,23.48
2022-10-04T18:37:47.458Z,22.35
2022-10-04T18:40:58.544Z,22.30
2022-10-04T18:44:15.129Z,20.48
2022-10-04T18:47:34.693Z,23.23
2022-10-04T18:50:48.963Z,19.58
2022-10-04T18:54:22.311Z,24.95
2022-10-04T18:57:59.367Z,26.02
2022-10-04T19:01:34.589Z,22.95
2022-10-04T19:04:49.395Z,28.58
2022-10-04T19:08:30.811Z,21.77
2022-10-04T19:12:09.891Z,22.92
2022-10-04T19:15:28.317Z,18.80
2022-10-04T19:19:08.082Z,21.90
2022-10-04T19:22:38.569Z,19.88
2022-10-04T19:26:17.641Z,24.65
2022-10-04T19:29:54.682Z,20.58
2022-10-04T19:33:05.952Z,15.85
2022-10-04T19:36:23.615Z,23.45
2022-10-04T19:39:55.034Z,17.80
2022-10-04T19:43:05.926Z,17.30
2022-10-04T19:46:33.253Z,18.05
2022-10-04T19:50:03.085Z,16.88
2022-10-04T19:53:28.038Z,14.57
2022-10-04T19:56:38.859Z,15.85
2022-10-04T20:02:55.785Z,18.60
2022-10-04T20:06:09.918Z,19.25
2022-10-04T20:09:34.733Z,15.30
2022-10-04T20:12:43.317Z,17.20
2022-10-04T20:15:50.546Z,18.70
2022-10-04T20:19:00.682Z,18.15
2022-10-04T20:22:11.198Z,18.77
2022-10-04T20:25:46.911Z,19.25
2022-10-04T20:28:52.752Z,15.82
2022-10-04T20:31:59.097Z,16.75
2022-10-04T20:35:52.135Z,20.25
2022-10-04T20:39:02.629Z,17.30
2022-10-04T20:42:30.233Z,19.10
2022-10-04T20:45:45.526Z,19.20
2022-10-04T20:48:53.932Z,24.88
2022-10-04T20:51:59.461Z,17.90
2022-10-04T20:55:21.347Z,19.17
2022-10-04T20:58:35.632Z,15.43
2022-10-04T21:01:44.586Z,17.98
2022-10-04T21:04:54.118Z,19.73
2022-10-04T21:08:21.837Z,18.15
2022-10-04T21:11:44.505Z,21.52
2022-10-04T21:15:19.025Z,17.08
2022-10-04T21:18:24.633Z,18.67
2022-10-04T21:21:49.497Z,21.27
2022-10-04T21:25:00.450Z,20.90
2022-10-04T21:31:29.843Z,18.75
2022-10-04T21:34:52.442Z,26.52
2022-10-04T21:37:59.194Z,18.80
2022-10-04T21:41:05.408Z,20.35
2022-10-04T21:44:10.447Z,21.65
2022-10-04T21:47:16.416Z,20.67
2022-10-04T21:50:21.465Z,19.95
2022-10-04T21:53:26.598Z,20.33
2022-10-04T21:56:32.256Z,16.25
2022-10-04T21:59:37.986Z,22.45
2022-10-04T22:02:43.348Z,21.58
2022-10-04T22:05:48.466Z,24.92
2022-10-04T22:08:53.825Z,17.65
2022-10-04T22:11:58.779Z,19.40
2022-10-04T22:15:05.229Z,19.17
2022-10-04T22:18:10.726Z,22.50
2022-10-04T22:21:15.695Z,24.30
2022-10-04T22:24:21.278Z,20.67
2022-10-04T22:27:29.076Z,21.70
2022-10-04T22:30:36.824Z,22.63
2022-10-04T22:33:45.003Z,24.77
2022-10-04T22:36:53.486Z,20.15
2022-10-04T22:39:59.121Z,25.88
2022-10-04T22:43:04.673Z,18.85
2022-10-04T22:46:19.389Z,23.88
2022-10-04T22:49:36.606Z,19.30
2022-10-04T22:52:42.056Z,24.45
2022-10-04T22:55:52.463Z,23.65
2022-10-04T22:58:59.967Z,25.73
2022-10-04T23:02:28.940Z,20.45
2022-10-04T23:05:34.074Z,23.00
2022-10-04T23:08:40.343Z,28.95
2022-10-04T23:11:46.159Z,21.77
2022-10-04T23:14:51.659Z,20.92
2022-10-04T23:17:57.683Z,23.88
2022-10-04T23:21:03.757Z,22.65
2022-10-04T23:24:18.524Z,23.27
2022-10-04T23:27:24.159Z,34.00
2022-10-04T23:30:29.482Z,25.35
2022-10-04T23:33:34.827Z,29.13
2022-10-04T23:36:40.819Z,23.73
2022-10-04T23:39:47.072Z,25.25
2022-10-04T23:42:57.014Z,21.63
2022-10-04T23:46:02.693Z,33.13
2022-10-04T23:49:15.795Z,30.90
2022-10-04T23:52:37.008Z,27.88
2022-10-04T23:55:45.938Z,26.73
2022-10-04T23:58:55.998Z,23.45
